createdAt,value
2018-09-10T00:01:14.296Z,2.70
2018-09-10T00:03:42.151Z,2.60
2018-09-10T00:06:10.623Z,2.80
2018-09-10T00:08:38.684Z,2.50
2018-09-10T00:11:06.773Z,2.70
2018-09-10T00:13:34.792Z,2.70
2018-09-10T00:16:02.728Z,2.70
2018-09-10T00:18:30.401Z,2.67
2018-09-10T00:20:58.237Z,2.90
2018-09-10T00:23:25.756Z,3.00
2018-09-10T00:25:53.818Z,2.98
2018-09-10T00:28:22.251Z,2.90
2018-09-10T00:30:50.123Z,2.80
2018-09-10T00:33:17.852Z,2.90
2018-09-10T00:35:45.557Z,2.83
2018-09-10T00:38:13.331Z,3.12
2018-09-10T00:40:41.060Z,3.30
2018-09-10T00:43:08.684Z,2.70
2018-09-10T00:45:36.604Z,3.10
2018-09-10T00:48:04.366Z,2.95
2018-09-10T00:50:32.048Z,2.98
2018-09-10T00:52:59.952Z,3.05
2018-09-10T00:55:27.693Z,2.70
2018-09-10T00:57:55.333Z,3.10
2018-09-10T01:00:22.920Z,3.00
2018-09-10T01:02:50.532Z,2.60
2018-09-10T01:05:18.071Z,2.70
2018-09-10T01:07:45.872Z,2.83
2018-09-10T01:10:13.772Z,2.90
2018-09-10T01:12:41.429Z,2.80
2018-09-10T01:15:09.289Z,3.10
2018-09-10T01:17:38.031Z,2.70
2018-09-10T01:20:06.118Z,2.70
2018-09-10T01:22:34.010Z,3.10
2018-09-10T01:25:02.846Z,3.10
2018-09-10T01:27:30.780Z,2.92
2018-09-10T01:29:58.692Z,3.05
2018-09-10T01:32:26.604Z,2.80
2018-09-10T01:35:00.607Z,2.83
2018-09-10T01:37:28.263Z,2.95
2018-09-10T01:39:56.127Z,2.92
2018-09-10T01:42:23.995Z,3.08
2018-09-10T01:44:51.900Z,3.00
2018-09-10T01:47:19.863Z,3.10
2018-09-10T01:49:47.523Z,3.20
2018-09-10T01:52:15.914Z,3.10
2018-09-10T01:54:43.532Z,3.10
2018-09-10T01:57:10.913Z,3.10
2018-09-10T01:59:38.619Z,3.50
2018-09-10T02:02:06.320Z,3.27
2018-09-10T02:04:34.585Z,2.87
2018-09-10T02:07:02.314Z,2.80
2018-09-10T02:09:31.226Z,3.35
2018-09-10T02:11:59.438Z,3.22
2018-09-10T02:14:27.021Z,3.30
2018-09-10T02:16:54.947Z,3.10
2018-09-10T02:19:22.623Z,3.20
2018-09-10T02:21:50.378Z,3.25
2018-09-10T02:24:18.027Z,3.17
2018-09-10T02:26:46.174Z,3.00
2018-09-10T02:29:13.631Z,3.00
2018-09-10T02:31:41.032Z,3.42
2018-09-10T02:34:08.656Z,3.40
2018-09-10T02:36:36.392Z,3.15
2018-09-10T02:39:04.910Z,3.13
2018-09-10T02:41:33.551Z,3.37
2018-09-10T02:44:01.199Z,3.12
2018-09-10T02:46:28.932Z,3.50
2018-09-10T02:48:56.516Z,3.13
2018-09-10T02:51:24.110Z,3.30
2018-09-10T02:53:51.645Z,3.50
2018-09-10T02:56:19.734Z,3.30
2018-09-10T02:58:47.505Z,3.37
2018-09-10T03:01:15.238Z,3.85
2018-09-10T03:03:42.917Z,3.62
2018-09-10T03:06:11.219Z,3.40
2018-09-10T03:08:38.806Z,3.40
2018-09-10T03:11:06.254Z,3.70
2018-09-10T03:13:33.884Z,3.40
2018-09-10T03:16:01.750Z,3.30
2018-09-10T03:18:29.630Z,3.33
2018-09-10T03:20:57.156Z,3.70
2018-09-10T03:23:24.645Z,3.58
2018-09-10T03:25:52.311Z,3.65
2018-09-10T03:28:20.109Z,3.70
2018-09-10T03:30:48.447Z,3.55
2018-09-10T03:33:16.463Z,3.90
2018-09-10T03:35:44.996Z,3.60
2018-09-10T03:38:13.059Z,3.77
2018-09-10T03:40:40.715Z,3.80
2018-09-10T03:43:08.609Z,3.60
2018-09-10T03:45:36.367Z,4.10
2018-09-10T03:48:03.987Z,4.80
2018-09-10T03:50:32.782Z,4.90
2018-09-10T03:53:00.457Z,5.10
2018-09-10T03:55:27.987Z,4.37
2018-09-10T03:58:01.185Z,4.30
2018-09-10T04:00:29.047Z,5.10
2018-09-10T04:02:56.669Z,5.10
2018-09-10T04:05:24.135Z,4.33
2018-09-10T04:07:51.706Z,5.15
2018-09-10T04:10:19.244Z,4.80
2018-09-10T04:12:47.103Z,5.00
2018-09-10T04:15:14.866Z,4.30
2018-09-10T04:17:42.323Z,4.47
2018-09-10T04:20:11.423Z,4.75
2018-09-10T04:22:41.378Z,4.60
2018-09-10T04:25:08.994Z,4.47
2018-09-10T04:27:38.653Z,4.20
2018-09-10T04:30:08.759Z,4.00
2018-09-10T04:32:36.568Z,4.20
2018-09-10T04:35:04.170Z,4.10
2018-09-10T04:37:31.680Z,4.25
2018-09-10T04:39:59.286Z,4.37
2018-09-10T04:42:26.829Z,4.40
2018-09-10T04:44:54.409Z,4.10
2018-09-10T04:47:22.011Z,4.17
2018-09-10T04:49:50.035Z,4.20
2018-09-10T04:52:18.027Z,4.17
2018-09-10T04:54:45.587Z,3.92
2018-09-10T04:57:13.221Z,4.00
2018-09-10T04:59:43.067Z,3.90
2018-09-10T05:02:13.146Z,3.83
2018-09-10T05:04:43.574Z,4.30
2018-09-10T05:07:13.854Z,4.58
2018-09-10T05:09:44.544Z,4.30
2018-09-10T05:12:14.888Z,4.10
2018-09-10T05:14:45.289Z,4.20
2018-09-10T05:17:15.804Z,3.85
2018-09-10T05:19:46.706Z,4.00
2018-09-10T05:22:18.027Z,3.55
2018-09-10T05:24:49.554Z,3.20
2018-09-10T05:27:21.575Z,3.10
2018-09-10T05:29:51.619Z,3.40
2018-09-10T05:32:22.132Z,3.27
2018-09-10T05:34:52.501Z,5.00
2018-09-10T05:37:23.414Z,4.33
2018-09-10T05:39:55.211Z,4.85
2018-09-10T05:42:27.307Z,3.60
2018-09-10T05:44:57.583Z,5.40
2018-09-10T05:47:27.882Z,3.10
2018-09-10T05:49:57.886Z,3.67
2018-09-10T05:52:27.839Z,4.33
2018-09-10T05:54:57.581Z,4.47
2018-09-10T05:57:27.562Z,4.45
2018-09-10T05:59:56.594Z,4.33
2018-09-10T06:02:25.035Z,4.13
2018-09-10T06:04:54.798Z,4.30
2018-09-10T06:07:23.714Z,3.72
2018-09-10T06:09:53.704Z,4.03
2018-09-10T06:12:24.040Z,3.80
2018-09-10T06:14:53.577Z,4.28
2018-09-10T06:17:23.495Z,3.90
2018-09-10T06:19:52.967Z,3.25
2018-09-10T06:22:23.102Z,4.20
2018-09-10T06:24:52.990Z,3.72
2018-09-10T06:27:22.636Z,3.70
2018-09-10T06:29:52.729Z,3.60
2018-09-10T06:32:22.842Z,3.33
2018-09-10T06:34:52.984Z,3.72
2018-09-10T06:37:23.216Z,3.70
2018-09-10T06:39:55.624Z,4.00
2018-09-10T06:42:28.058Z,3.55
2018-09-10T06:44:58.735Z,3.80
2018-09-10T06:47:28.693Z,4.28
2018-09-10T06:49:58.890Z,3.90
2018-09-10T06:52:29.304Z,4.27
2018-09-10T06:54:59.953Z,4.53
2018-09-10T06:57:30.663Z,3.80
2018-09-10T07:00:00.883Z,3.92
2018-09-10T07:02:31.204Z,3.87
2018-09-10T07:05:02.051Z,3.50
2018-09-10T07:07:32.589Z,3.30
2018-09-10T07:10:03.241Z,2.75
2018-09-10T07:12:33.983Z,2.70
2018-09-10T07:15:04.515Z,2.30
2018-09-10T07:17:35.021Z,2.20
2018-09-10T07:20:06.830Z,2.20
2018-09-10T07:22:38.379Z,2.40
2018-09-10T07:25:10.084Z,2.27
2018-09-10T07:27:42.215Z,2.50
2018-09-10T07:30:12.422Z,2.20
2018-09-10T07:32:42.895Z,2.15
2018-09-10T07:35:14.095Z,2.15
2018-09-10T07:37:44.377Z,2.20
2018-09-10T07:40:14.707Z,1.95
2018-09-10T07:42:44.877Z,2.13
2018-09-10T07:45:14.347Z,1.90
2018-09-10T07:47:42.988Z,2.02
2018-09-10T07:50:13.436Z,2.20
2018-09-10T07:52:41.821Z,2.30
2018-09-10T07:55:11.562Z,2.20
2018-09-10T07:57:40.120Z,2.30
2018-09-10T08:00:10.372Z,2.20
2018-09-10T08:02:40.042Z,2.10
2018-09-10T08:05:08.476Z,2.30
2018-09-10T08:07:38.025Z,5.55
2018-09-10T08:10:07.523Z,3.17
2018-09-10T08:12:37.810Z,3.17
2018-09-10T08:15:06.671Z,2.45
2018-09-10T08:17:36.712Z,2.30
2018-09-10T08:20:04.823Z,4.87
2018-09-10T08:22:34.924Z,2.15
2018-09-10T08:25:05.002Z,2.90
2018-09-10T08:27:34.227Z,2.62
2018-09-10T08:30:04.288Z,2.17
2018-09-10T08:32:32.368Z,2.00
2018-09-10T08:35:00.848Z,2.30
2018-09-10T08:37:30.183Z,1.90
2018-09-10T08:40:00.183Z,2.10
2018-09-10T08:42:28.460Z,2.02
2018-09-10T08:44:58.202Z,2.10
2018-09-10T08:47:27.869Z,1.93
2018-09-10T08:49:57.487Z,1.90
2018-09-10T08:52:25.094Z,2.15
2018-09-10T08:54:53.894Z,1.90
2018-09-10T08:57:22.874Z,1.90
2018-09-10T08:59:51.728Z,1.90
2018-09-10T09:02:21.315Z,2.10
2018-09-10T09:04:52.269Z,1.90
2018-09-10T09:07:21.903Z,1.90
2018-09-10T09:09:51.730Z,1.80
2018-09-10T09:12:21.278Z,1.60
2018-09-10T09:14:50.868Z,2.00
2018-09-10T09:17:20.399Z,1.80
2018-09-10T09:22:31.818Z,1.70
2018-09-10T09:24:59.555Z,2.80
2018-09-10T09:27:27.109Z,4.67
2018-09-10T09:29:54.573Z,1.77
2018-09-10T09:32:22.013Z,1.80
2018-09-10T09:34:55.214Z,2.10
2018-09-10T09:38:26.006Z,1.80
2018-09-10T09:40:59.127Z,2.00
2018-09-10T09:43:31.915Z,1.70
2018-09-10T09:46:04.821Z,1.80
2018-09-10T09:48:32.258Z,1.80
2018-09-10T09:50:59.575Z,1.62
2018-09-10T09:53:28.627Z,1.90
2018-09-10T09:55:56.004Z,2.15
2018-09-10T09:58:23.420Z,3.20
2018-09-10T10:00:56.418Z,2.40
2018-09-10T10:03:29.860Z,1.90
2018-09-10T10:05:57.281Z,1.90
2018-09-10T10:08:25.148Z,2.00
2018-09-10T10:10:52.770Z,2.50
2018-09-10T10:13:20.196Z,2.20
2018-09-10T10:15:48.099Z,2.30
2018-09-10T10:18:15.684Z,2.20
2018-09-10T10:20:43.023Z,2.40
2018-09-10T10:23:10.394Z,2.27
2018-09-10T10:25:37.806Z,3.03
2018-09-10T10:28:05.342Z,2.80
2018-09-10T10:30:33.295Z,3.30
2018-09-10T10:33:00.664Z,2.42
2018-09-10T10:35:28.056Z,2.20
2018-09-10T10:37:55.482Z,2.10
2018-09-10T10:40:22.893Z,2.50
2018-09-10T10:42:50.271Z,2.60
2018-09-10T10:45:17.581Z,2.65
2018-09-10T10:47:44.936Z,2.65
2018-09-10T10:50:12.593Z,2.80
2018-09-10T10:52:40.014Z,2.50
2018-09-10T10:55:07.537Z,2.40
2018-09-10T10:57:35.413Z,2.98
2018-09-10T11:00:02.846Z,3.27
2018-09-10T11:02:30.152Z,3.17
2018-09-10T11:04:57.536Z,3.02
2018-09-10T11:07:25.357Z,2.40
2018-09-10T11:09:52.750Z,2.40
2018-09-10T11:12:20.598Z,2.90
2018-09-10T11:14:48.019Z,2.27
2018-09-10T11:17:15.478Z,2.40
2018-09-10T11:19:42.806Z,2.30
2018-09-10T11:22:10.174Z,2.10
2018-09-10T11:24:37.513Z,1.90
2018-09-10T11:27:04.870Z,2.22
2018-09-10T11:29:32.477Z,2.30
2018-09-10T11:32:00.328Z,2.20
2018-09-10T11:34:27.821Z,2.30
2018-09-10T11:36:55.243Z,2.20
2018-09-10T11:39:23.222Z,2.22
2018-09-10T11:41:51.006Z,2.12
2018-09-10T11:44:18.338Z,1.93
2018-09-10T11:46:45.909Z,1.90
2018-09-10T11:49:13.524Z,2.10
2018-09-10T11:51:40.869Z,2.10
2018-09-10T11:54:08.541Z,2.00
2018-09-10T11:56:35.958Z,1.87
2018-09-10T11:59:03.717Z,2.65
2018-09-10T12:01:31.138Z,2.50
2018-09-10T12:03:58.493Z,2.35
2018-09-10T12:06:25.939Z,2.27
2018-09-10T12:08:53.366Z,2.50
2018-09-10T12:11:21.336Z,3.30
2018-09-10T12:13:49.957Z,2.40
2018-09-10T12:16:18.273Z,2.30
2018-09-10T12:18:45.787Z,2.20
2018-09-10T12:21:13.425Z,2.92
2018-09-10T12:23:41.158Z,3.25
2018-09-10T12:26:08.784Z,2.40
2018-09-10T12:28:36.110Z,2.80
2018-09-10T12:31:03.479Z,3.50
2018-09-10T12:33:32.429Z,3.25
2018-09-10T12:35:59.834Z,3.10
2018-09-10T12:38:28.277Z,2.80
2018-09-10T12:40:55.663Z,2.50
2018-09-10T12:43:23.032Z,2.80
2018-09-10T12:45:50.405Z,2.55
2018-09-10T12:48:18.294Z,3.20
2018-09-10T12:50:45.668Z,3.20
2018-09-10T12:53:13.314Z,2.90
2018-09-10T12:55:40.885Z,3.02
2018-09-10T12:58:08.504Z,2.87
2018-09-10T13:00:36.402Z,2.70
2018-09-10T13:03:03.789Z,2.60
2018-09-10T13:05:31.204Z,2.95
2018-09-10T13:07:58.673Z,2.90
2018-09-10T13:10:26.223Z,2.53
2018-09-10T13:12:53.858Z,2.30
2018-09-10T13:15:21.239Z,2.40
2018-09-10T13:17:48.606Z,2.50
2018-09-10T13:20:16.027Z,2.65
2018-09-10T13:22:43.473Z,2.47
2018-09-10T13:25:10.785Z,2.50
2018-09-10T13:27:38.105Z,2.93
2018-09-10T13:30:06.221Z,2.70
2018-09-10T13:32:33.871Z,2.70
2018-09-10T13:35:02.201Z,3.10
2018-09-10T13:37:29.667Z,2.83
2018-09-10T13:39:57.136Z,2.90
2018-09-10T13:42:24.928Z,2.45
2018-09-10T13:44:52.982Z,2.40
2018-09-10T13:47:20.389Z,3.20
2018-09-10T13:49:48.858Z,2.47
2018-09-10T13:52:16.247Z,2.30
2018-09-10T13:54:43.581Z,2.30
2018-09-10T13:57:11.195Z,2.20
2018-09-10T13:59:38.891Z,2.50
2018-09-10T14:02:07.113Z,2.60
2018-09-10T14:04:34.450Z,2.37
2018-09-10T14:07:01.812Z,2.47
2018-09-10T14:09:29.194Z,2.50
2018-09-10T14:11:56.772Z,2.70
2018-09-10T14:14:24.948Z,2.65
2018-09-10T14:16:52.296Z,2.40
2018-09-10T14:19:20.461Z,2.70
2018-09-10T14:21:48.184Z,2.83
2018-09-10T14:24:15.789Z,2.40
2018-09-10T14:26:43.213Z,2.60
2018-09-10T14:29:10.798Z,2.45
2018-09-10T14:31:38.609Z,2.47
2018-09-10T14:34:06.364Z,2.33
2018-09-10T14:36:34.516Z,2.42
2018-09-10T14:39:03.113Z,2.40
2018-09-10T14:41:30.503Z,2.12
2018-09-10T14:43:58.152Z,2.50
2018-09-10T14:46:25.681Z,2.30
2018-09-10T14:48:54.015Z,2.20
2018-09-10T14:51:21.432Z,2.00
2018-09-10T14:53:49.261Z,2.17
2018-09-10T14:56:16.955Z,3.05
2018-09-10T14:58:44.625Z,2.60
2018-09-10T15:01:12.607Z,2.73
2018-09-10T15:03:42.743Z,3.35
2018-09-10T15:06:10.721Z,2.40
2018-09-10T15:08:38.310Z,2.50
2018-09-10T15:11:05.729Z,2.60
2018-09-10T15:13:33.328Z,2.50
2018-09-10T15:16:00.875Z,3.77
2018-09-10T15:18:28.369Z,2.67
2018-09-10T15:20:55.722Z,3.10
2018-09-10T15:23:23.291Z,2.65
2018-09-10T15:25:50.751Z,2.37
2018-09-10T15:28:18.138Z,2.40
2018-09-10T15:30:45.509Z,2.30
2018-09-10T15:33:12.879Z,2.20
2018-09-10T15:35:40.477Z,2.70
2018-09-10T15:38:08.045Z,2.60
2018-09-10T15:40:35.467Z,3.17
2018-09-10T15:43:02.993Z,2.42
2018-09-10T15:45:30.598Z,2.40
2018-09-10T15:47:58.015Z,2.50
2018-09-10T15:50:25.600Z,2.45
2018-09-10T15:52:53.002Z,2.60
2018-09-10T15:55:20.574Z,3.02
2018-09-10T15:57:47.940Z,2.70
2018-09-10T16:00:15.330Z,2.30
2018-09-10T16:02:43.066Z,2.35
2018-09-10T16:05:10.484Z,2.45
2018-09-10T16:07:38.116Z,3.23
2018-09-10T16:10:05.854Z,2.50
2018-09-10T16:12:33.231Z,2.22
2018-09-10T16:15:01.134Z,2.50
2018-09-10T16:17:28.789Z,2.60
2018-09-10T16:19:56.245Z,3.70
2018-09-10T16:22:23.653Z,3.20
2018-09-10T16:24:51.441Z,3.40
2018-09-10T16:27:18.814Z,3.20
2018-09-10T16:29:46.914Z,2.58
2018-09-10T16:32:14.623Z,2.30
2018-09-10T16:34:42.624Z,2.50
2018-09-10T16:37:09.981Z,2.40
2018-09-10T16:39:37.397Z,2.62
2018-09-10T16:42:04.843Z,2.70
2018-09-10T16:44:32.206Z,2.60
2018-09-10T16:46:59.708Z,3.10
2018-09-10T16:49:27.687Z,3.27
2018-09-10T16:51:55.550Z,2.40
2018-09-10T16:54:23.466Z,3.60
2018-09-10T16:56:50.877Z,3.40
2018-09-10T16:59:18.245Z,2.50
2018-09-10T17:01:45.627Z,2.70
2018-09-10T17:04:13.034Z,2.47
2018-09-10T17:06:41.013Z,3.15
2018-09-10T17:09:09.296Z,7.20
2018-09-10T17:11:37.050Z,3.85
2018-09-10T17:14:04.693Z,3.17
2018-09-10T17:16:32.446Z,3.08
2018-09-10T17:19:00.228Z,9.80
2018-09-10T17:21:28.188Z,4.67
2018-09-10T17:23:55.722Z,3.30
2018-09-10T17:26:23.139Z,2.95
2018-09-10T17:28:50.547Z,3.00
2018-09-10T17:31:18.003Z,3.20
2018-09-10T17:33:45.607Z,3.22
2018-09-10T17:36:13.092Z,4.33
2018-09-10T17:38:40.694Z,3.20
2018-09-10T17:41:08.237Z,3.50
2018-09-10T17:43:35.930Z,5.63
2018-09-10T17:46:04.358Z,3.60
2018-09-10T17:48:31.713Z,3.40
2018-09-10T17:51:00.669Z,3.10
2018-09-10T17:53:29.964Z,4.85
2018-09-10T17:55:58.573Z,4.50
2018-09-10T17:58:25.947Z,2.90
2018-09-10T18:00:53.395Z,2.90
2018-09-10T18:03:21.463Z,5.72
2018-09-10T18:05:49.467Z,6.42
2018-09-10T18:08:16.862Z,3.90
2018-09-10T18:11:11.348Z,4.43
2018-09-10T18:13:38.862Z,4.92
2018-09-10T18:16:06.712Z,5.80
2018-09-10T18:18:34.101Z,2.80
2018-09-10T18:21:01.645Z,2.95
2018-09-10T18:23:29.081Z,5.83
2018-09-10T18:25:56.536Z,5.55
2018-09-10T18:28:25.045Z,4.10
2018-09-10T18:30:52.604Z,2.47
2018-09-10T18:33:20.064Z,3.00
2018-09-10T18:35:48.123Z,3.08
2018-09-10T18:38:17.077Z,3.70
2018-09-10T18:40:44.573Z,2.72
2018-09-10T18:43:11.977Z,2.77
2018-09-10T18:45:39.410Z,3.12
2018-09-10T18:48:06.816Z,3.37
2018-09-10T18:50:34.238Z,3.10
2018-09-10T18:53:01.633Z,2.50
2018-09-10T18:55:29.088Z,2.50
2018-09-10T18:57:56.735Z,2.50
2018-09-10T19:00:24.480Z,2.25
2018-09-10T19:02:51.916Z,2.33
2018-09-10T19:05:19.282Z,2.60
2018-09-10T19:07:46.813Z,2.30
2018-09-10T19:10:14.298Z,2.43
2018-09-10T19:12:41.946Z,2.47
2018-09-10T19:15:09.380Z,2.50
2018-09-10T19:17:36.885Z,2.80
2018-09-10T19:20:04.427Z,6.60
2018-09-10T19:22:31.764Z,3.98
2018-09-10T19:24:59.502Z,3.90
2018-09-10T19:27:26.914Z,3.42
2018-09-10T19:29:54.362Z,3.70
2018-09-10T19:32:21.785Z,3.90
2018-09-10T19:34:49.642Z,3.00
2018-09-10T19:37:17.402Z,3.62
2018-09-10T19:39:45.489Z,4.65
2018-09-10T19:42:12.941Z,4.53
2018-09-10T19:44:40.304Z,3.92
2018-09-10T19:47:07.765Z,3.40
2018-09-10T19:49:35.247Z,2.83
2018-09-10T19:52:02.665Z,2.77
2018-09-10T19:54:30.430Z,2.72
2018-09-10T19:56:57.829Z,2.50
2018-09-10T19:59:25.269Z,2.70
2018-09-10T20:01:52.670Z,2.55
2018-09-10T20:04:20.072Z,2.40
2018-09-10T20:06:47.486Z,2.60
2018-09-10T20:09:15.160Z,2.30
2018-09-10T20:11:42.525Z,2.40
2018-09-10T20:14:10.119Z,2.60
2018-09-10T20:16:37.528Z,2.65
2018-09-10T20:19:05.077Z,2.30
2018-09-10T20:21:32.904Z,2.60
2018-09-10T20:24:00.328Z,2.10
2018-09-10T20:26:28.117Z,2.40
2018-09-10T20:28:55.545Z,2.65
2018-09-10T20:31:23.484Z,2.70
2018-09-10T20:33:56.293Z,3.10
2018-09-10T20:36:23.860Z,2.60
2018-09-10T20:38:51.530Z,2.60
2018-09-10T20:41:19.056Z,2.85
2018-09-10T20:43:46.591Z,2.80
2018-09-10T20:46:14.265Z,2.50
2018-09-10T20:48:41.866Z,2.55
2018-09-10T20:51:09.935Z,2.33
2018-09-10T20:53:37.567Z,2.90
2018-09-10T20:56:05.266Z,2.70
2018-09-10T20:58:32.609Z,2.85
2018-09-10T21:01:00.487Z,2.60
2018-09-10T21:03:27.843Z,2.85
2018-09-10T21:05:55.480Z,2.60
2018-09-10T21:08:22.890Z,2.60
2018-09-10T21:10:50.538Z,2.40
2018-09-10T21:13:18.025Z,2.60
2018-09-10T21:15:45.407Z,2.70
2018-09-10T21:18:12.838Z,3.00
2018-09-10T21:20:40.933Z,2.40
2018-09-10T21:23:08.529Z,2.47
2018-09-10T21:25:35.919Z,2.58
2018-09-10T21:28:03.318Z,2.65
2018-09-10T21:30:31.819Z,3.08
2018-09-10T21:32:59.537Z,2.70
2018-09-10T21:35:26.872Z,2.52
2018-09-10T21:37:54.224Z,2.50
2018-09-10T21:40:21.981Z,2.60
2018-09-10T21:42:49.320Z,2.40
2018-09-10T21:45:16.742Z,2.55
2018-09-10T21:47:45.826Z,2.40
2018-09-10T21:50:13.752Z,2.63
2018-09-10T21:52:41.369Z,2.62
2018-09-10T21:55:08.958Z,2.60
2018-09-10T21:57:36.433Z,3.00
2018-09-10T22:00:03.918Z,2.70
2018-09-10T22:02:31.572Z,2.80
2018-09-10T22:04:59.296Z,2.58
2018-09-10T22:07:26.953Z,2.80
2018-09-10T22:09:54.535Z,2.60
2018-09-10T22:12:22.188Z,2.55
2018-09-10T22:14:49.857Z,2.40
2018-09-10T22:17:17.188Z,2.67
2018-09-10T22:19:44.810Z,3.30
2018-09-10T22:22:12.540Z,2.90
2018-09-10T22:24:40.361Z,2.58
2018-09-10T22:27:07.694Z,3.10
2018-09-10T22:29:35.412Z,2.70
2018-09-10T22:32:05.591Z,3.00
2018-09-10T22:34:33.002Z,3.20
2018-09-10T22:37:00.680Z,3.27
2018-09-10T22:39:28.407Z,3.00
2018-09-10T22:41:55.780Z,3.80
2018-09-10T22:44:23.256Z,3.12
2018-09-10T22:46:50.565Z,3.12
2018-09-10T22:49:18.253Z,2.80
2018-09-10T22:51:45.736Z,2.90
2018-09-10T22:54:13.120Z,2.70
2018-09-10T22:56:40.533Z,2.77
2018-09-10T22:59:08.213Z,2.80
2018-09-10T23:01:35.614Z,3.40
2018-09-10T23:04:03.302Z,3.20
2018-09-10T23:06:30.741Z,3.02
2018-09-10T23:08:58.134Z,3.40
2018-09-10T23:11:26.137Z,2.90
2018-09-10T23:13:53.557Z,3.30
2018-09-10T23:16:21.171Z,2.98
2018-09-10T23:18:48.861Z,3.17
2018-09-10T23:21:16.242Z,3.30
2018-09-10T23:23:43.602Z,2.90
2018-09-10T23:26:11.150Z,3.00
2018-09-10T23:28:38.619Z,3.30
2018-09-10T23:31:06.466Z,3.50
2018-09-10T23:33:34.132Z,2.70
2018-09-10T23:36:01.490Z,3.20
2018-09-10T23:38:28.892Z,2.60
2018-09-10T23:40:56.680Z,5.42
2018-09-10T23:43:23.992Z,3.77
2018-09-10T23:45:51.523Z,8.90
2018-09-10T23:48:19.183Z,3.37
2018-09-10T23:50:46.607Z,4.55
2018-09-10T23:53:14.509Z,3.90
2018-09-10T23:55:41.859Z,5.30
2018-09-10T23:58:09.269Z,3.20
